createdAt,value
2022-08-10T00:00:07.277Z,0.00
2022-08-10T00:00:57.254Z,0.00
2022-08-10T00:01:47.319Z,0.00
2022-08-10T00:02:37.246Z,0.00
2022-08-10T00:03:27.242Z,0.00
2022-08-10T00:04:21.530Z,0.00
2022-08-10T00:05:07.231Z,0.00
2022-08-10T00:05:57.206Z,0.00
2022-08-10T00:06:47.187Z,0.00
2022-08-10T00:07:37.205Z,0.00
2022-08-10T00:08:27.186Z,0.00
2022-08-10T00:09:17.166Z,0.00
2022-08-10T00:10:07.165Z,0.00
2022-08-10T00:10:57.155Z,0.00
2022-08-10T00:11:47.172Z,0.00
2022-08-10T00:12:53.519Z,0.00
2022-08-10T00:13:28.115Z,0.00
2022-08-10T00:14:17.120Z,0.00
2022-08-10T00:15:07.106Z,0.00
2022-08-10T00:15:57.102Z,0.00
2022-08-10T00:16:47.082Z,0.00
2022-08-10T00:17:37.108Z,0.00
2022-08-10T00:18:34.644Z,0.00
2022-08-10T00:19:18.203Z,0.00
2022-08-10T00:20:08.501Z,0.00
2022-08-10T00:20:57.044Z,0.00
2022-08-10T00:21:47.061Z,0.00
2022-08-10T00:22:37.023Z,0.00
2022-08-10T00:23:28.036Z,0.00
2022-08-10T00:24:17.006Z,0.00
2022-08-10T00:25:06.986Z,0.00
2022-08-10T00:25:56.972Z,0.00
2022-08-10T00:27:51.759Z,0.00
2022-08-10T00:27:51.949Z,0.00
2022-08-10T00:28:27.952Z,0.00
2022-08-10T00:29:16.954Z,0.00
2022-08-10T00:30:06.934Z,0.00
2022-08-10T00:30:56.915Z,0.00
2022-08-10T00:31:58.168Z,0.00
2022-08-10T00:32:37.905Z,0.00
2022-08-10T00:33:26.936Z,0.00
2022-08-10T00:34:16.892Z,0.00
2022-08-10T00:35:06.876Z,0.00
2022-08-10T00:35:56.862Z,0.00
2022-08-10T00:36:46.874Z,0.00
2022-08-10T00:37:36.874Z,0.00
2022-08-10T00:38:26.853Z,0.00
2022-08-10T00:39:16.860Z,0.00
2022-08-10T00:40:06.894Z,0.00
2022-08-10T00:40:56.814Z,0.00
2022-08-10T00:41:46.814Z,0.00
2022-08-10T00:42:37.786Z,0.00
2022-08-10T00:43:26.784Z,0.00
2022-08-10T00:44:16.784Z,0.00
2022-08-10T00:45:06.776Z,0.00
2022-08-10T00:45:59.291Z,0.00
2022-08-10T00:46:46.765Z,0.00
2022-08-10T00:47:37.840Z,0.00
2022-08-10T00:48:28.152Z,0.00
2022-08-10T00:49:16.737Z,0.00
2022-08-10T00:50:06.723Z,0.00
2022-08-10T00:50:56.694Z,0.00
2022-08-10T00:51:48.719Z,0.00
2022-08-10T00:52:36.923Z,0.00
2022-08-10T00:53:26.694Z,0.00
2022-08-10T00:54:24.749Z,0.00
2022-08-10T00:55:07.657Z,0.00
2022-08-10T00:57:15.098Z,0.00
2022-08-10T00:57:15.988Z,0.00
2022-08-10T00:57:37.623Z,0.00
2022-08-10T00:58:26.623Z,0.00
2022-08-10T00:59:16.643Z,0.00
2022-08-10T01:00:06.593Z,0.00
2022-08-10T01:00:56.681Z,0.00
2022-08-10T01:02:08.496Z,0.00
2022-08-10T01:02:37.859Z,0.00
2022-08-10T01:04:40.159Z,0.00
2022-08-10T01:04:57.948Z,0.00
2022-08-10T01:05:07.583Z,0.00
2022-08-10T01:05:56.554Z,0.00
2022-08-10T01:06:46.526Z,0.00
2022-08-10T01:07:36.535Z,0.00
2022-08-10T01:08:26.523Z,0.00
2022-08-10T01:09:16.513Z,0.00
2022-08-10T01:10:06.483Z,0.00
2022-08-10T01:10:56.492Z,0.00
2022-08-10T01:12:39.550Z,0.00
2022-08-10T01:12:41.440Z,0.00
2022-08-10T01:13:26.456Z,0.00
2022-08-10T01:14:16.462Z,0.00
2022-08-10T01:15:06.442Z,0.00
2022-08-10T01:15:56.483Z,0.00
2022-08-10T01:16:46.423Z,0.00
2022-08-10T01:17:49.874Z,0.00
2022-08-10T01:18:27.393Z,0.00
2022-08-10T01:19:16.388Z,0.00
2022-08-10T01:20:06.393Z,0.00
2022-08-10T01:20:56.370Z,0.00
2022-08-10T01:21:53.863Z,0.00
2022-08-10T01:22:37.361Z,0.00
2022-08-10T01:23:26.352Z,0.00
2022-08-10T01:24:16.351Z,0.00
2022-08-10T01:25:06.332Z,0.00
2022-08-10T01:26:10.412Z,0.00
2022-08-10T01:26:47.301Z,0.00
2022-08-10T01:27:36.315Z,0.00
2022-08-10T01:28:26.281Z,0.00
2022-08-10T01:29:16.301Z,0.00
2022-08-10T01:30:06.281Z,0.00
2022-08-10T01:30:56.298Z,0.00
2022-08-10T01:31:46.242Z,0.00
2022-08-10T01:32:36.441Z,0.00
2022-08-10T01:33:29.923Z,0.00
2022-08-10T01:34:18.202Z,0.00
2022-08-10T01:35:06.243Z,0.00
2022-08-10T01:35:56.219Z,0.00
2022-08-10T01:36:46.191Z,0.00
2022-08-10T01:37:36.202Z,0.00
2022-08-10T01:38:26.191Z,0.00
2022-08-10T01:39:16.196Z,0.00
2022-08-10T01:40:06.161Z,0.00
2022-08-10T01:40:56.151Z,0.00
2022-08-10T01:41:47.086Z,0.00
2022-08-10T01:42:36.407Z,0.00
2022-08-10T01:43:26.142Z,0.00
2022-08-10T01:44:16.117Z,0.00
2022-08-10T01:45:06.098Z,0.00
2022-08-10T01:45:56.111Z,0.00
2022-08-10T01:46:46.102Z,0.00
2022-08-10T01:47:36.860Z,0.00
2022-08-10T01:48:26.060Z,0.00
2022-08-10T01:49:16.070Z,0.00
2022-08-10T01:50:06.061Z,0.00
2022-08-10T01:51:00.159Z,0.00
2022-08-10T01:51:46.039Z,0.00
2022-08-10T01:52:36.269Z,0.00
2022-08-10T01:53:26.018Z,0.00
2022-08-10T01:54:16.010Z,0.00
2022-08-10T01:55:05.990Z,0.00
2022-08-10T01:55:56.010Z,0.00
2022-08-10T01:56:45.969Z,0.00
2022-08-10T01:57:35.988Z,0.00
2022-08-10T01:58:25.979Z,0.00
2022-08-10T01:59:15.957Z,0.00
2022-08-10T02:00:05.951Z,0.00
2022-08-10T02:00:56.028Z,0.00
2022-08-10T02:01:45.983Z,0.00
2022-08-10T02:02:36.185Z,0.00
2022-08-10T02:03:25.891Z,0.00
2022-08-10T02:04:15.908Z,0.00
2022-08-10T02:05:05.888Z,0.00
2022-08-10T02:05:55.922Z,0.00
2022-08-10T02:06:45.869Z,0.00
2022-08-10T02:07:37.868Z,0.00
2022-08-10T02:08:25.839Z,0.00
2022-08-10T02:09:15.870Z,0.00
2022-08-10T02:10:05.839Z,0.00
2022-08-10T02:10:55.818Z,0.00
2022-08-10T02:12:06.473Z,0.00
2022-08-10T02:12:36.909Z,0.00
2022-08-10T02:13:25.798Z,0.00
2022-08-10T02:14:15.796Z,0.00
2022-08-10T02:15:05.796Z,0.00
2022-08-10T02:16:01.044Z,0.00
2022-08-10T02:16:46.758Z,0.00
2022-08-10T02:17:57.773Z,0.00
2022-08-10T02:18:26.739Z,0.00
2022-08-10T02:19:15.726Z,0.00
2022-08-10T02:20:05.728Z,0.00
2022-08-10T02:20:55.718Z,0.00
2022-08-10T02:22:45.756Z,0.00
2022-08-10T02:22:46.013Z,0.00
2022-08-10T02:23:26.688Z,0.00
2022-08-10T02:24:15.677Z,0.00
2022-08-10T02:25:05.659Z,0.00
2022-08-10T02:25:55.668Z,0.00
2022-08-10T02:26:45.658Z,0.00
2022-08-10T02:27:35.636Z,0.00
2022-08-10T02:28:29.671Z,0.00
2022-08-10T02:29:16.648Z,0.00
2022-08-10T02:30:05.626Z,0.00
2022-08-10T02:30:55.607Z,0.00
2022-08-10T02:31:45.597Z,0.00
2022-08-10T02:32:38.036Z,0.00
2022-08-10T02:33:25.597Z,0.00
2022-08-10T02:34:15.557Z,0.00
2022-08-10T02:35:05.557Z,0.00
2022-08-10T02:35:56.049Z,0.00
2022-08-10T02:36:45.537Z,0.00
2022-08-10T02:37:35.534Z,0.00
2022-08-10T02:38:58.526Z,0.00
2022-08-10T02:39:16.593Z,0.00
2022-08-10T02:40:05.485Z,0.00
2022-08-10T02:42:18.402Z,0.00
2022-08-10T02:45:18.297Z,0.00
2022-08-10T02:45:22.801Z,0.00
2022-08-10T02:45:25.640Z,0.00
2022-08-10T02:45:25.640Z,0.00
2022-08-10T02:45:27.816Z,0.00
2022-08-10T02:45:56.426Z,0.00
2022-08-10T02:46:45.426Z,0.00
2022-08-10T02:47:51.202Z,0.00
2022-08-10T02:48:26.396Z,0.00
2022-08-10T02:49:15.415Z,0.00
2022-08-10T02:50:05.375Z,0.00
2022-08-10T02:50:55.375Z,0.00
2022-08-10T02:52:06.955Z,0.00
2022-08-10T02:52:36.664Z,0.00
2022-08-10T02:53:54.425Z,0.00
2022-08-10T02:54:16.345Z,0.00
2022-08-10T02:55:06.159Z,0.00
2022-08-10T02:55:56.355Z,0.00
2022-08-10T02:56:45.305Z,0.00
2022-08-10T02:57:35.337Z,0.00
2022-08-10T02:58:25.308Z,0.00
2022-08-10T02:59:17.380Z,0.00
2022-08-10T03:00:05.281Z,0.00
2022-08-10T03:00:55.347Z,0.00
2022-08-10T03:01:45.275Z,0.00
2022-08-10T03:02:35.434Z,0.00
2022-08-10T03:03:25.225Z,0.00
2022-08-10T03:04:15.245Z,0.00
2022-08-10T03:05:05.223Z,0.00
2022-08-10T03:05:55.231Z,0.00
2022-08-10T03:06:45.196Z,0.00
2022-08-10T03:07:43.929Z,0.00
2022-08-10T03:08:26.186Z,0.00
2022-08-10T03:09:15.364Z,0.00
2022-08-10T03:10:05.163Z,0.00
2022-08-10T03:10:56.167Z,0.00
2022-08-10T03:12:37.893Z,0.00
2022-08-10T03:12:38.783Z,0.00
2022-08-10T03:13:25.148Z,0.00
2022-08-10T03:14:15.113Z,0.00
2022-08-10T03:15:05.095Z,0.00
2022-08-10T03:15:55.124Z,0.00
2022-08-10T03:16:45.103Z,0.00
2022-08-10T03:17:35.093Z,0.00
2022-08-10T03:18:25.062Z,0.00
2022-08-10T03:20:33.824Z,0.00
2022-08-10T03:20:38.400Z,0.00
2022-08-10T03:20:56.054Z,0.00
2022-08-10T03:21:45.053Z,0.00
2022-08-10T03:22:35.175Z,0.00
2022-08-10T03:23:25.022Z,0.00
2022-08-10T03:24:26.173Z,0.00
2022-08-10T03:25:05.995Z,0.00
2022-08-10T03:25:55.138Z,0.00
2022-08-10T03:26:44.973Z,0.00
2022-08-10T03:27:34.973Z,0.00
2022-08-10T03:28:24.977Z,0.00
2022-08-10T03:29:14.983Z,0.00
2022-08-10T03:30:29.627Z,0.00
2022-08-10T03:30:55.976Z,0.00
2022-08-10T03:31:44.933Z,0.00
2022-08-10T03:32:35.112Z,0.00
2022-08-10T03:33:24.892Z,0.00
2022-08-10T03:34:32.633Z,0.00
2022-08-10T03:35:05.892Z,0.00
2022-08-10T03:36:42.975Z,0.00
2022-08-10T03:36:45.871Z,0.00
2022-08-10T03:37:34.872Z,0.00
2022-08-10T03:38:24.851Z,0.00
2022-08-10T03:39:14.892Z,0.00
2022-08-10T03:40:04.833Z,0.00
2022-08-10T03:40:54.833Z,0.00
2022-08-10T03:41:53.178Z,0.00
2022-08-10T03:42:35.976Z,4.00
2022-08-10T03:43:24.809Z,4.00
2022-08-10T03:44:14.782Z,0.00
2022-08-10T03:45:04.781Z,0.00
2022-08-10T03:45:56.569Z,4.00
2022-08-10T03:46:44.781Z,4.00
2022-08-10T03:47:34.741Z,4.00
2022-08-10T03:48:24.730Z,4.00
2022-08-10T03:49:15.732Z,4.00
2022-08-10T03:50:27.611Z,8.00
2022-08-10T03:50:55.720Z,8.00
2022-08-10T03:51:44.701Z,8.00
2022-08-10T03:52:34.769Z,12.00
2022-08-10T03:54:03.454Z,12.00
2022-08-10T03:54:15.703Z,12.00
2022-08-10T03:55:04.692Z,16.00
2022-08-10T03:56:28.333Z,16.00
2022-08-10T03:56:45.650Z,20.00
2022-08-10T03:57:34.640Z,20.00
2022-08-10T03:58:24.630Z,24.00
2022-08-10T03:59:14.635Z,28.00
2022-08-10T04:00:04.600Z,28.00
2022-08-10T04:00:54.674Z,32.00
2022-08-10T04:02:41.897Z,36.00
2022-08-10T04:02:43.823Z,44.00
2022-08-10T04:03:25.562Z,48.00
2022-08-10T04:04:18.959Z,56.00
2022-08-10T04:05:05.547Z,60.00
2022-08-10T04:05:54.547Z,68.00
2022-08-10T04:06:44.539Z,76.00
2022-08-10T04:07:34.541Z,80.00
2022-08-10T04:08:24.529Z,88.00
2022-08-10T04:09:14.510Z,100.00
2022-08-10T04:10:04.519Z,108.00
2022-08-10T04:10:54.489Z,120.00
2022-08-10T04:11:44.479Z,128.00
2022-08-10T04:12:34.706Z,140.00
2022-08-10T04:13:24.449Z,152.00
2022-08-10T04:14:38.150Z,164.00
2022-08-10T04:15:05.450Z,176.00
2022-08-10T04:15:54.438Z,188.00
2022-08-10T04:16:44.436Z,204.00
2022-08-10T04:18:03.325Z,220.00
2022-08-10T04:18:25.417Z,232.00
2022-08-10T04:19:14.415Z,252.00
2022-08-10T04:20:04.378Z,272.00
2022-08-10T04:20:54.378Z,288.00
2022-08-10T04:21:44.359Z,304.00
2022-08-10T04:22:34.452Z,324.00
2022-08-10T04:23:24.376Z,344.00
2022-08-10T04:24:26.781Z,360.00
2022-08-10T04:25:05.325Z,380.00
2022-08-10T04:25:54.317Z,400.00
2022-08-10T04:26:44.311Z,416.00
2022-08-10T04:27:34.314Z,436.00
2022-08-10T04:28:24.337Z,456.00
2022-08-10T04:29:14.303Z,472.00
2022-08-10T04:30:04.309Z,492.00
2022-08-10T04:30:54.279Z,516.00
2022-08-10T04:31:44.255Z,532.00
2022-08-10T04:32:34.524Z,552.00
2022-08-10T04:33:24.255Z,572.00
2022-08-10T04:34:14.227Z,592.00
2022-08-10T04:35:04.238Z,608.00
2022-08-10T04:35:54.214Z,628.00
2022-08-10T04:36:44.237Z,644.00
2022-08-10T04:37:34.185Z,664.00
2022-08-10T04:38:24.197Z,684.00
2022-08-10T04:39:14.257Z,704.00
2022-08-10T04:40:04.176Z,720.00
2022-08-10T04:40:55.176Z,740.00
2022-08-10T04:41:46.300Z,760.00
2022-08-10T04:42:34.285Z,776.00
2022-08-10T04:43:24.136Z,796.00
2022-08-10T04:44:14.106Z,816.00
2022-08-10T04:45:04.104Z,832.00
2022-08-10T04:45:54.106Z,848.00
2022-08-10T04:46:55.795Z,868.00
2022-08-10T04:48:00.367Z,884.00
2022-08-10T04:48:40.748Z,900.00
2022-08-10T04:49:54.114Z,916.00
2022-08-10T04:50:05.055Z,932.00
2022-08-10T04:50:54.067Z,948.00
2022-08-10T04:51:44.054Z,964.00
2022-08-10T04:52:34.194Z,980.00
2022-08-10T04:53:24.044Z,996.00
2022-08-10T04:54:15.905Z,1012.00
2022-08-10T04:55:04.006Z,1024.00
2022-08-10T04:55:53.984Z,1040.00
2022-08-10T04:56:43.997Z,1052.00
2022-08-10T04:57:33.975Z,1068.00
2022-08-10T04:58:23.974Z,1080.00
2022-08-10T04:59:13.955Z,1096.00
2022-08-10T05:00:03.974Z,1108.00
2022-08-10T05:00:54.965Z,1120.00
2022-08-10T05:02:30.043Z,1132.00
2022-08-10T05:02:35.087Z,1144.00
2022-08-10T05:03:23.924Z,1156.00
2022-08-10T05:04:34.658Z,1168.00
2022-08-10T05:05:04.895Z,1180.00
2022-08-10T05:05:53.905Z,1192.00
2022-08-10T05:06:43.895Z,1204.00
2022-08-10T05:07:37.473Z,1216.00
2022-08-10T05:08:24.845Z,1228.00
2022-08-10T05:09:13.834Z,1236.00
2022-08-10T05:10:07.376Z,1248.00
2022-08-10T05:10:54.822Z,1260.00
2022-08-10T05:11:43.815Z,1268.00
2022-08-10T05:12:35.723Z,1284.00
2022-08-10T05:13:23.814Z,1296.00
2022-08-10T05:14:13.794Z,1304.00
2022-08-10T05:15:03.794Z,1312.00
2022-08-10T05:15:53.755Z,1324.00
2022-08-10T05:16:43.754Z,1332.00
2022-08-10T05:17:33.741Z,1344.00
2022-08-10T05:18:23.784Z,1352.00
2022-08-10T05:19:13.737Z,1360.00
2022-08-10T05:20:06.944Z,1372.00
2022-08-10T05:20:53.706Z,1380.00
2022-08-10T05:22:01.407Z,1392.00
2022-08-10T05:22:34.780Z,1400.00
2022-08-10T05:23:23.706Z,1412.00
2022-08-10T05:24:13.682Z,1416.00
2022-08-10T05:25:03.681Z,1424.00
2022-08-10T05:25:53.663Z,1432.00
2022-08-10T05:27:00.632Z,1440.00
2022-08-10T05:27:34.633Z,1452.00
2022-08-10T05:28:23.646Z,1456.00
2022-08-10T05:29:14.622Z,1464.00
2022-08-10T05:30:04.162Z,1472.00
2022-08-10T05:30:53.612Z,1476.00
2022-08-10T05:31:43.779Z,1484.00
2022-08-10T05:32:55.508Z,1488.00
2022-08-10T05:33:24.591Z,1496.00
2022-08-10T05:34:20.747Z,1504.00
2022-08-10T05:35:04.553Z,1508.00
2022-08-10T05:35:56.916Z,1516.00
2022-08-10T05:36:43.542Z,1524.00
2022-08-10T05:38:12.833Z,1532.00
2022-08-10T05:38:24.540Z,1536.00
2022-08-10T05:39:13.563Z,1544.00
2022-08-10T05:40:03.504Z,1552.00
2022-08-10T05:40:53.488Z,1556.00
2022-08-10T05:41:46.159Z,1564.00
2022-08-10T05:42:34.536Z,1572.00
2022-08-10T05:43:23.495Z,1576.00
2022-08-10T05:44:13.451Z,1580.00
2022-08-10T05:45:03.461Z,1588.00
2022-08-10T05:46:16.704Z,1592.00
2022-08-10T05:46:44.440Z,1596.00
2022-08-10T05:48:41.759Z,1608.00
2022-08-10T05:48:54.255Z,1608.00
2022-08-10T05:49:14.390Z,1616.00
2022-08-10T05:50:03.408Z,1624.00
2022-08-10T05:50:53.391Z,1628.00
2022-08-10T05:51:43.385Z,1632.00
2022-08-10T05:52:33.425Z,1636.00
2022-08-10T05:53:59.623Z,1644.00
2022-08-10T05:54:14.350Z,1644.00
2022-08-10T05:55:03.332Z,1652.00
2022-08-10T05:55:53.319Z,1656.00
2022-08-10T05:56:55.378Z,1660.00
2022-08-10T05:57:34.298Z,1664.00
2022-08-10T05:58:23.310Z,1668.00
2022-08-10T05:59:13.301Z,1672.00
2022-08-10T06:00:33.443Z,1676.00
2022-08-10T06:00:54.424Z,1676.00
2022-08-10T06:01:43.270Z,1680.00
2022-08-10T06:02:41.772Z,1688.00
2022-08-10T06:03:24.338Z,1688.00
2022-08-10T06:04:13.247Z,1692.00
2022-08-10T06:05:03.230Z,1696.00
2022-08-10T06:05:53.219Z,1704.00
2022-08-10T06:06:43.219Z,1704.00
2022-08-10T06:07:33.288Z,1708.00
2022-08-10T06:08:23.190Z,1708.00
2022-08-10T06:09:13.169Z,1716.00
2022-08-10T06:10:03.962Z,1716.00
2022-08-10T06:12:21.691Z,1716.00
2022-08-10T06:12:26.063Z,1720.00
2022-08-10T06:12:54.160Z,1724.00
2022-08-10T06:13:29.885Z,1728.00
2022-08-10T06:14:16.553Z,1728.00
2022-08-10T06:15:05.777Z,1732.00
2022-08-10T06:15:54.108Z,1736.00
2022-08-10T06:16:43.104Z,1740.00
2022-08-10T06:17:33.089Z,1740.00
2022-08-10T06:18:23.067Z,1744.00
2022-08-10T06:19:14.992Z,1748.00
2022-08-10T06:20:03.048Z,1748.00
2022-08-10T06:20:53.039Z,1752.00
2022-08-10T06:21:53.675Z,1756.00
2022-08-10T06:22:34.069Z,1756.00
2022-08-10T06:23:23.021Z,1760.00
2022-08-10T06:24:13.006Z,1768.00
2022-08-10T06:26:09.752Z,1768.00
2022-08-10T06:26:44.008Z,1768.00
2022-08-10T06:27:34.840Z,1772.00
2022-08-10T06:28:22.977Z,1776.00
2022-08-10T06:29:12.946Z,1780.00
2022-08-10T06:30:02.951Z,1780.00
2022-08-10T06:30:53.947Z,1784.00
2022-08-10T06:31:48.953Z,1784.00
2022-08-10T06:32:33.907Z,1784.00
2022-08-10T06:33:22.928Z,1788.00
2022-08-10T06:34:12.887Z,1792.00
2022-08-10T06:35:02.887Z,1788.00
2022-08-10T06:35:52.885Z,1792.00
2022-08-10T06:36:42.897Z,1792.00
2022-08-10T06:37:32.867Z,1796.00
2022-08-10T06:38:22.850Z,1796.00
2022-08-10T06:39:32.344Z,1796.00
2022-08-10T06:40:03.939Z,1800.00
2022-08-10T06:40:52.826Z,1800.00
2022-08-10T06:42:15.221Z,1804.00
2022-08-10T06:42:33.846Z,1808.00
2022-08-10T06:43:22.794Z,1804.00
2022-08-10T06:44:12.776Z,1812.00
2022-08-10T06:45:02.776Z,1816.00
2022-08-10T06:46:06.758Z,1816.00
2022-08-10T06:46:46.502Z,1816.00
2022-08-10T06:47:32.745Z,1816.00
2022-08-10T06:48:22.765Z,1816.00
2022-08-10T06:49:12.727Z,1820.00
2022-08-10T06:50:04.835Z,1820.00
2022-08-10T06:50:58.589Z,1820.00
2022-08-10T06:51:43.707Z,1820.00
2022-08-10T06:52:32.758Z,1824.00
2022-08-10T06:53:22.693Z,1824.00
2022-08-10T06:54:12.694Z,1828.00
2022-08-10T06:55:05.073Z,1828.00
2022-08-10T06:55:56.776Z,1828.00
2022-08-10T06:56:55.863Z,1828.00
2022-08-10T06:57:33.640Z,1828.00
2022-08-10T06:58:25.815Z,1832.00
2022-08-10T06:59:14.552Z,1836.00
2022-08-10T07:00:03.628Z,1836.00
2022-08-10T07:00:53.159Z,1840.00
2022-08-10T07:01:42.616Z,1840.00
2022-08-10T07:02:33.685Z,1844.00
2022-08-10T07:03:22.606Z,1844.00
2022-08-10T07:04:14.046Z,1844.00
2022-08-10T07:05:02.633Z,1848.00
2022-08-10T07:05:52.609Z,1848.00
2022-08-10T07:06:42.536Z,1856.00
2022-08-10T07:07:33.604Z,1856.00
2022-08-10T07:08:22.527Z,1860.00
2022-08-10T07:09:15.065Z,1864.00
2022-08-10T07:10:02.508Z,1868.00
2022-08-10T07:10:52.485Z,1864.00
2022-08-10T07:11:42.496Z,1864.00
2022-08-10T07:12:32.496Z,1868.00
2022-08-10T07:14:15.360Z,1872.00
2022-08-10T07:14:16.176Z,1868.00
2022-08-10T07:15:02.445Z,1876.00
2022-08-10T07:15:59.596Z,1876.00
2022-08-10T07:16:43.416Z,1876.00
2022-08-10T07:17:35.995Z,1876.00
2022-08-10T07:18:23.406Z,1872.00
2022-08-10T07:19:12.384Z,1876.00
2022-08-10T07:20:03.279Z,1880.00
2022-08-10T07:20:52.404Z,1876.00
2022-08-10T07:21:42.375Z,1884.00
2022-08-10T07:23:54.355Z,1880.00
2022-08-10T07:23:56.869Z,1880.00
2022-08-10T07:24:13.337Z,1880.00
2022-08-10T07:25:02.358Z,1884.00
2022-08-10T07:25:52.325Z,1884.00
2022-08-10T07:26:42.308Z,1888.00
2022-08-10T07:27:59.284Z,1884.00
2022-08-10T07:28:23.527Z,1888.00
2022-08-10T07:29:26.453Z,1892.00
2022-08-10T07:30:03.277Z,1884.00
2022-08-10T07:30:52.255Z,1888.00
2022-08-10T07:31:56.861Z,1892.00
2022-08-10T07:32:33.286Z,1892.00
2022-08-10T07:33:22.266Z,1888.00
2022-08-10T07:34:12.239Z,1896.00
2022-08-10T07:35:03.225Z,1908.00
2022-08-10T07:35:52.206Z,1908.00
2022-08-10T07:36:42.215Z,1908.00
2022-08-10T07:37:32.184Z,1912.00
2022-08-10T07:38:22.223Z,1916.00
2022-08-10T07:39:12.200Z,1912.00
2022-08-10T07:40:04.594Z,1920.00
2022-08-10T07:40:52.156Z,1920.00
2022-08-10T07:41:42.157Z,1924.00
2022-08-10T07:42:32.137Z,1924.00
2022-08-10T07:43:22.123Z,1932.00
2022-08-10T07:44:12.134Z,1932.00
2022-08-10T07:45:02.115Z,1932.00
2022-08-10T07:45:52.105Z,1936.00
2022-08-10T07:46:42.088Z,1928.00
2022-08-10T07:47:53.699Z,1932.00
2022-08-10T07:48:23.087Z,1936.00
2022-08-10T07:49:16.116Z,1944.00
2022-08-10T07:50:03.056Z,1940.00
2022-08-10T07:50:52.046Z,1944.00
2022-08-10T07:51:42.038Z,1944.00
2022-08-10T07:52:32.057Z,1940.00
2022-08-10T07:53:22.053Z,1944.00
2022-08-10T07:54:11.995Z,1944.00
2022-08-10T07:55:01.998Z,1948.00
2022-08-10T07:56:04.682Z,1948.00
2022-08-10T07:56:49.004Z,1960.00
2022-08-10T07:57:34.828Z,1956.00
2022-08-10T07:58:22.958Z,1956.00
2022-08-10T07:59:11.967Z,1968.00
2022-08-10T08:00:01.947Z,1960.00
2022-08-10T08:00:51.934Z,1960.00
2022-08-10T08:01:41.969Z,1968.00
2022-08-10T08:02:33.266Z,1976.00
2022-08-10T08:03:21.915Z,1972.00
2022-08-10T08:04:12.150Z,1980.00
2022-08-10T08:05:01.896Z,1976.00
2022-08-10T08:05:51.910Z,1972.00
2022-08-10T08:06:42.893Z,1976.00
2022-08-10T08:07:31.874Z,1984.00
2022-08-10T08:08:21.858Z,1984.00
2022-08-10T08:09:11.861Z,1984.00
2022-08-10T08:10:01.825Z,1984.00
2022-08-10T08:10:51.836Z,1984.00
2022-08-10T08:11:41.825Z,1996.00
2022-08-10T08:12:36.625Z,1988.00
2022-08-10T08:13:22.825Z,1996.00
2022-08-10T08:14:11.818Z,1988.00
2022-08-10T08:15:01.776Z,2000.00
2022-08-10T08:16:17.255Z,2000.00
2022-08-10T08:16:42.756Z,1996.00
2022-08-10T08:17:35.600Z,2000.00
2022-08-10T08:18:25.290Z,2008.00
2022-08-10T08:19:29.799Z,2016.00
2022-08-10T08:20:02.759Z,2008.00
2022-08-10T08:20:51.725Z,2004.00
2022-08-10T08:24:05.200Z,2012.00
2022-08-10T08:24:05.582Z,2004.00
2022-08-10T08:24:09.203Z,2012.00
2022-08-10T08:24:21.683Z,2020.00
2022-08-10T08:25:02.687Z,2028.00
2022-08-10T08:25:51.667Z,2040.00
2022-08-10T08:26:41.669Z,2036.00
2022-08-10T08:27:31.644Z,2032.00
2022-08-10T08:28:21.646Z,2032.00
2022-08-10T08:29:11.638Z,2028.00
2022-08-10T08:30:01.622Z,2036.00
2022-08-10T08:30:51.616Z,2032.00
2022-08-10T08:31:59.193Z,2032.00
2022-08-10T08:32:32.668Z,2024.00
2022-08-10T08:33:41.321Z,2028.00
2022-08-10T08:34:12.586Z,2048.00
2022-08-10T08:35:01.589Z,2052.00
2022-08-10T08:35:51.575Z,2044.00
2022-08-10T08:36:41.546Z,2048.00
2022-08-10T08:38:29.486Z,2052.00
2022-08-10T08:38:33.200Z,2044.00
2022-08-10T08:39:12.585Z,2068.00
2022-08-10T08:40:01.497Z,2064.00
2022-08-10T08:40:51.499Z,2064.00
2022-08-10T08:41:41.497Z,2072.00
2022-08-10T08:42:31.480Z,2080.00
2022-08-10T08:43:21.781Z,2084.00
2022-08-10T08:44:11.477Z,2080.00
2022-08-10T08:45:01.467Z,2080.00
2022-08-10T08:46:01.220Z,2084.00
2022-08-10T08:46:42.463Z,2088.00
2022-08-10T08:48:05.159Z,2096.00
2022-08-10T08:48:22.409Z,2096.00
2022-08-10T08:49:11.416Z,2096.00
2022-08-10T08:50:08.762Z,2100.00
2022-08-10T08:50:57.168Z,2104.00
2022-08-10T08:52:07.847Z,2112.00
2022-08-10T08:52:32.433Z,2112.00
2022-08-10T08:53:22.504Z,2108.00
2022-08-10T08:54:11.368Z,2128.00
2022-08-10T08:55:01.348Z,2128.00
2022-08-10T08:56:05.172Z,2132.00
2022-08-10T08:56:44.820Z,2140.00
2022-08-10T08:57:49.148Z,2140.00
2022-08-10T08:58:22.308Z,2144.00
2022-08-10T08:59:11.296Z,2140.00
2022-08-10T09:00:01.278Z,2144.00
2022-08-10T09:00:51.437Z,2144.00
2022-08-10T09:01:41.603Z,2140.00
2022-08-10T09:02:31.307Z,2148.00
2022-08-10T09:03:25.022Z,2148.00
2022-08-10T09:04:20.160Z,2152.00
2022-08-10T09:05:02.237Z,2160.00
2022-08-10T09:06:00.293Z,2168.00
2022-08-10T09:06:42.207Z,2172.00
2022-08-10T09:08:00.963Z,2168.00
2022-08-10T09:08:22.228Z,2168.00
2022-08-10T09:09:11.209Z,2196.00
2022-08-10T09:10:01.169Z,2208.00
2022-08-10T09:10:51.177Z,2212.00
2022-08-10T09:11:41.163Z,2216.00
2022-08-10T09:12:31.172Z,2228.00
2022-08-10T09:13:21.148Z,2244.00
2022-08-10T09:14:11.147Z,2256.00
2022-08-10T09:15:01.117Z,2268.00
2022-08-10T09:15:51.135Z,2280.00
2022-08-10T09:16:41.110Z,2280.00
2022-08-10T09:17:31.098Z,2280.00
2022-08-10T09:18:21.088Z,2280.00
2022-08-10T09:19:11.078Z,2284.00
2022-08-10T09:20:02.085Z,2280.00
2022-08-10T09:20:51.058Z,2288.00
2022-08-10T09:21:51.472Z,2300.00
2022-08-10T09:22:32.061Z,2312.00
2022-08-10T09:23:21.028Z,2288.00
2022-08-10T09:24:12.037Z,2316.00
2022-08-10T09:25:01.020Z,2328.00
2022-08-10T09:25:51.027Z,2340.00
2022-08-10T09:26:40.987Z,2344.00
2022-08-10T09:27:32.325Z,2348.00
2022-08-10T09:28:20.996Z,2344.00
2022-08-10T09:29:13.503Z,2348.00
2022-08-10T09:30:00.948Z,2348.00
2022-08-10T09:31:18.867Z,2348.00
2022-08-10T09:31:41.946Z,2360.00
2022-08-10T09:36:15.448Z,2356.00
2022-08-10T09:36:21.412Z,2380.00
2022-08-10T09:36:24.757Z,2372.00
2022-08-10T09:36:25.144Z,2376.00
2022-08-10T09:36:25.986Z,2376.00
2022-08-10T09:36:42.216Z,2380.00
2022-08-10T09:37:42.593Z,2384.00
2022-08-10T09:38:21.861Z,2392.00
2022-08-10T09:39:10.852Z,2384.00
2022-08-10T09:40:55.978Z,2380.00
2022-08-10T09:40:59.861Z,2400.00
2022-08-10T09:41:41.877Z,2404.00
2022-08-10T09:42:30.824Z,2416.00
2022-08-10T09:43:27.952Z,2428.00
2022-08-10T09:44:11.791Z,2448.00
2022-08-10T09:45:00.790Z,2448.00
2022-08-10T09:45:50.781Z,2444.00
2022-08-10T09:46:40.781Z,2456.00
2022-08-10T09:48:01.166Z,2448.00
2022-08-10T09:48:21.760Z,2440.00
2022-08-10T09:49:10.750Z,2452.00
2022-08-10T09:50:04.699Z,2452.00
2022-08-10T09:51:34.469Z,2480.00
2022-08-10T09:51:45.737Z,2492.00
2022-08-10T09:52:30.731Z,2512.00
2022-08-10T09:53:20.720Z,2520.00
2022-08-10T09:54:10.680Z,2528.00
2022-08-10T09:55:00.670Z,2540.00
2022-08-10T09:56:19.216Z,2544.00
2022-08-10T09:56:41.670Z,2532.00
2022-08-10T09:57:46.289Z,2564.00
2022-08-10T09:58:21.641Z,2580.00
2022-08-10T09:59:27.098Z,2604.00
2022-08-10T10:00:02.722Z,2612.00
2022-08-10T10:00:50.630Z,2620.00
2022-08-10T10:02:03.507Z,2620.00
2022-08-10T10:02:31.591Z,2624.00
2022-08-10T10:03:22.804Z,2628.00
2022-08-10T10:04:11.613Z,2620.00
2022-08-10T10:05:00.570Z,2620.00
2022-08-10T10:05:52.096Z,2616.00
2022-08-10T10:06:40.550Z,2612.00
2022-08-10T10:07:30.550Z,2608.00
2022-08-10T10:08:20.532Z,2608.00
2022-08-10T10:09:11.049Z,2608.00
2022-08-10T10:10:00.517Z,2620.00
2022-08-10T10:10:50.500Z,2632.00
2022-08-10T10:11:40.531Z,2648.00
2022-08-10T10:12:30.503Z,2648.00
2022-08-10T10:13:20.471Z,2644.00
2022-08-10T10:14:12.581Z,2648.00
2022-08-10T10:15:00.473Z,2652.00
2022-08-10T10:15:50.442Z,2672.00
2022-08-10T10:16:40.453Z,2680.00
2022-08-10T10:17:30.439Z,2696.00
2022-08-10T10:18:20.412Z,2700.00
2022-08-10T10:19:10.402Z,2700.00
2022-08-10T10:20:00.414Z,2708.00
2022-08-10T10:20:50.391Z,2708.00
2022-08-10T10:21:51.368Z,2712.00
2022-08-10T10:22:31.382Z,2724.00
2022-08-10T10:23:20.382Z,2712.00
2022-08-10T10:24:20.451Z,2696.00
2022-08-10T10:25:01.356Z,2700.00
2022-08-10T10:25:52.195Z,2696.00
2022-08-10T10:26:40.332Z,2692.00
2022-08-10T10:27:30.315Z,2684.00
2022-08-10T10:28:20.353Z,2676.00
2022-08-10T10:29:31.149Z,2672.00